sensor_id;sensor_type;location;lat;lon;timestamp;P1;durP1;ratioP1;P2;durP2;ratioP2
54123;SDS011;55741;53.252;5.788;2024-01-30T00:02:01;39.55;;;27.05;;
54123;SDS011;55741;53.252;5.788;2024-01-30T00:04:28;32.90;;;25.42;;
54123;SDS011;55741;53.252;5.788;2024-01-30T00:06:56;37.22;;;25.83;;
54123;SDS011;55741;53.252;5.788;2024-01-30T00:09:24;33.88;;;25.88;;
54123;SDS011;55741;53.252;5.788;2024-01-30T00:11:51;35.17;;;25.45;;
54123;SDS011;55741;53.252;5.788;2024-01-30T00:14:19;34.13;;;25.88;;
54123;SDS011;55741;53.252;5.788;2024-01-30T00:17:06;34.10;;;26.30;;
54123;SDS011;55741;53.252;5.788;2024-01-30T00:19:52;36.38;;;25.88;;
54123;SDS011;55741;53.252;5.788;2024-01-30T00:22:18;32.00;;;25.42;;
54123;SDS011;55741;53.252;5.788;2024-01-30T00:24:44;38.50;;;26.88;;
54123;SDS011;55741;53.252;5.788;2024-01-30T00:27:09;35.25;;;25.10;;
54123;SDS011;55741;53.252;5.788;2024-01-30T00:29:36;31.95;;;25.05;;
54123;SDS011;55741;53.252;5.788;2024-01-30T00:32:02;36.08;;;25.35;;
54123;SDS011;55741;53.252;5.788;2024-01-30T00:34:28;41.00;;;27.05;;
54123;SDS011;55741;53.252;5.788;2024-01-30T00:36:56;33.50;;;24.73;;
54123;SDS011;55741;53.252;5.788;2024-01-30T00:39:22;37.95;;;26.75;;
54123;SDS011;55741;53.252;5.788;2024-01-30T00:41:48;37.33;;;27.45;;
54123;SDS011;55741;53.252;5.788;2024-01-30T00:44:14;41.00;;;27.83;;
54123;SDS011;55741;53.252;5.788;2024-01-30T00:46:40;36.92;;;26.77;;
54123;SDS011;55741;53.252;5.788;2024-01-30T00:49:06;37.60;;;25.80;;
54123;SDS011;55741;53.252;5.788;2024-01-30T00:51:32;34.90;;;26.77;;
54123;SDS011;55741;53.252;5.788;2024-01-30T00:53:58;40.67;;;27.75;;
54123;SDS011;55741;53.252;5.788;2024-01-30T00:56:24;39.03;;;27.55;;
54123;SDS011;55741;53.252;5.788;2024-01-30T00:58:50;38.78;;;27.55;;
54123;SDS011;55741;53.252;5.788;2024-01-30T01:01:15;35.40;;;26.67;;
54123;SDS011;55741;53.252;5.788;2024-01-30T01:03:41;39.50;;;27.05;;
54123;SDS011;55741;53.252;5.788;2024-01-30T01:06:09;36.42;;;27.25;;
54123;SDS011;55741;53.252;5.788;2024-01-30T01:08:35;37.63;;;27.38;;
54123;SDS011;55741;53.252;5.788;2024-01-30T01:11:01;36.28;;;26.92;;
54123;SDS011;55741;53.252;5.788;2024-01-30T01:13:28;38.38;;;27.10;;
54123;SDS011;55741;53.252;5.788;2024-01-30T01:15:54;37.08;;;26.92;;
54123;SDS011;55741;53.252;5.788;2024-01-30T01:18:22;38.75;;;26.15;;
54123;SDS011;55741;53.252;5.788;2024-01-30T01:20:49;39.08;;;28.45;;
54123;SDS011;55741;53.252;5.788;2024-01-30T01:23:17;37.55;;;27.17;;
54123;SDS011;55741;53.252;5.788;2024-01-30T01:25:44;41.10;;;27.75;;
54123;SDS011;55741;53.252;5.788;2024-01-30T01:28:12;35.72;;;27.45;;
54123;SDS011;55741;53.252;5.788;2024-01-30T01:30:39;35.78;;;27.20;;
54123;SDS011;55741;53.252;5.788;2024-01-30T01:33:07;38.05;;;27.83;;
54123;SDS011;55741;53.252;5.788;2024-01-30T01:35:36;39.95;;;27.95;;
54123;SDS011;55741;53.252;5.788;2024-01-30T01:38:03;39.67;;;29.02;;
54123;SDS011;55741;53.252;5.788;2024-01-30T01:40:31;40.22;;;28.73;;
54123;SDS011;55741;53.252;5.788;2024-01-30T01:42:58;39.00;;;28.30;;
54123;SDS011;55741;53.252;5.788;2024-01-30T01:45:29;37.95;;;28.20;;
54123;SDS011;55741;53.252;5.788;2024-01-30T01:47:57;38.15;;;28.08;;
54123;SDS011;55741;53.252;5.788;2024-01-30T01:50:24;38.17;;;27.08;;
54123;SDS011;55741;53.252;5.788;2024-01-30T01:52:53;40.25;;;26.92;;
54123;SDS011;55741;53.252;5.788;2024-01-30T01:55:22;34.97;;;26.05;;
54123;SDS011;55741;53.252;5.788;2024-01-30T01:57:52;38.45;;;26.27;;
54123;SDS011;55741;53.252;5.788;2024-01-30T02:00:20;42.00;;;28.17;;
54123;SDS011;55741;53.252;5.788;2024-01-30T02:02:49;37.67;;;27.88;;
54123;SDS011;55741;53.252;5.788;2024-01-30T02:05:17;40.15;;;27.70;;
54123;SDS011;55741;53.252;5.788;2024-01-30T02:07:45;36.70;;;27.58;;
54123;SDS011;55741;53.252;5.788;2024-01-30T02:10:13;36.13;;;28.25;;
54123;SDS011;55741;53.252;5.788;2024-01-30T02:12:40;36.30;;;26.17;;
54123;SDS011;55741;53.252;5.788;2024-01-30T02:15:08;34.92;;;26.42;;
54123;SDS011;55741;53.252;5.788;2024-01-30T02:17:35;35.40;;;27.17;;
54123;SDS011;55741;53.252;5.788;2024-01-30T02:20:03;40.28;;;26.23;;
54123;SDS011;55741;53.252;5.788;2024-01-30T02:22:32;34.75;;;25.40;;
54123;SDS011;55741;53.252;5.788;2024-01-30T02:25:02;38.42;;;25.42;;
54123;SDS011;55741;53.252;5.788;2024-01-30T02:27:29;38.70;;;26.85;;
54123;SDS011;55741;53.252;5.788;2024-01-30T02:29:57;35.65;;;26.08;;
54123;SDS011;55741;53.252;5.788;2024-01-30T02:32:24;32.33;;;24.80;;
54123;SDS011;55741;53.252;5.788;2024-01-30T02:34:52;33.33;;;26.00;;
54123;SDS011;55741;53.252;5.788;2024-01-30T02:37:19;35.97;;;24.52;;
54123;SDS011;55741;53.252;5.788;2024-01-30T02:39:47;35.08;;;25.45;;
54123;SDS011;55741;53.252;5.788;2024-01-30T02:42:14;35.10;;;25.35;;
54123;SDS011;55741;53.252;5.788;2024-01-30T02:44:41;32.33;;;23.65;;
54123;SDS011;55741;53.252;5.788;2024-01-30T02:47:09;32.35;;;25.45;;
54123;SDS011;55741;53.252;5.788;2024-01-30T02:49:36;33.05;;;24.27;;
54123;SDS011;55741;53.252;5.788;2024-01-30T02:52:04;31.85;;;24.35;;
54123;SDS011;55741;53.252;5.788;2024-01-30T02:54:32;32.45;;;24.30;;
54123;SDS011;55741;53.252;5.788;2024-01-30T02:56:59;29.60;;;23.35;;
54123;SDS011;55741;53.252;5.788;2024-01-30T02:59:26;36.17;;;24.88;;
54123;SDS011;55741;53.252;5.788;2024-01-30T03:01:54;33.25;;;23.67;;
54123;SDS011;55741;53.252;5.788;2024-01-30T03:04:21;33.63;;;23.90;;
54123;SDS011;55741;53.252;5.788;2024-01-30T03:06:49;32.88;;;23.13;;
54123;SDS011;55741;53.252;5.788;2024-01-30T03:09:17;29.95;;;22.80;;
54123;SDS011;55741;53.252;5.788;2024-01-30T03:11:44;42.20;;;24.45;;
54123;SDS011;55741;53.252;5.788;2024-01-30T03:14:12;32.88;;;24.60;;
54123;SDS011;55741;53.252;5.788;2024-01-30T03:16:39;33.15;;;23.95;;
54123;SDS011;55741;53.252;5.788;2024-01-30T03:19:07;31.13;;;23.77;;
54123;SDS011;55741;53.252;5.788;2024-01-30T03:21:35;31.75;;;22.85;;
54123;SDS011;55741;53.252;5.788;2024-01-30T03:24:03;30.77;;;22.73;;
54123;SDS011;55741;53.252;5.788;2024-01-30T03:26:31;32.88;;;24.92;;
54123;SDS011;55741;53.252;5.788;2024-01-30T03:28:58;29.13;;;23.48;;
54123;SDS011;55741;53.252;5.788;2024-01-30T03:31:26;28.60;;;22.67;;
54123;SDS011;55741;53.252;5.788;2024-01-30T03:33:53;29.58;;;22.60;;
54123;SDS011;55741;53.252;5.788;2024-01-30T03:36:21;31.35;;;23.77;;
54123;SDS011;55741;53.252;5.788;2024-01-30T03:38:48;31.65;;;23.33;;
54123;SDS011;55741;53.252;5.788;2024-01-30T03:41:16;31.55;;;23.58;;
54123;SDS011;55741;53.252;5.788;2024-01-30T03:43:43;33.03;;;23.67;;
54123;SDS011;55741;53.252;5.788;2024-01-30T03:46:14;33.33;;;22.80;;
54123;SDS011;55741;53.252;5.788;2024-01-30T03:48:41;34.20;;;22.50;;
54123;SDS011;55741;53.252;5.788;2024-01-30T03:51:09;32.35;;;23.38;;
54123;SDS011;55741;53.252;5.788;2024-01-30T03:53:41;31.80;;;23.15;;
54123;SDS011;55741;53.252;5.788;2024-01-30T03:56:09;33.05;;;23.27;;
54123;SDS011;55741;53.252;5.788;2024-01-30T03:58:37;33.08;;;22.70;;
54123;SDS011;55741;53.252;5.788;2024-01-30T04:01:04;32.53;;;23.52;;
54123;SDS011;55741;53.252;5.788;2024-01-30T04:03:32;30.42;;;23.08;;
54123;SDS011;55741;53.252;5.788;2024-01-30T04:05:59;30.67;;;22.58;;
54123;SDS011;55741;53.252;5.788;2024-01-30T04:08:26;33.45;;;21.92;;
54123;SDS011;55741;53.252;5.788;2024-01-30T04:10:54;30.10;;;21.58;;
54123;SDS011;55741;53.252;5.788;2024-01-30T04:13:22;26.63;;;21.77;;
54123;SDS011;55741;53.252;5.788;2024-01-30T04:15:49;26.60;;;20.63;;
54123;SDS011;55741;53.252;5.788;2024-01-30T04:18:17;32.00;;;21.92;;
54123;SDS011;55741;53.252;5.788;2024-01-30T04:20:44;32.00;;;22.13;;
54123;SDS011;55741;53.252;5.788;2024-01-30T04:23:12;25.98;;;20.50;;
54123;SDS011;55741;53.252;5.788;2024-01-30T04:25:39;27.52;;;20.90;;
54123;SDS011;55741;53.252;5.788;2024-01-30T04:28:07;31.08;;;21.42;;
54123;SDS011;55741;53.252;5.788;2024-01-30T04:30:34;32.25;;;21.63;;
54123;SDS011;55741;53.252;5.788;2024-01-30T04:33:02;35.42;;;21.42;;
54123;SDS011;55741;53.252;5.788;2024-01-30T04:35:30;26.52;;;20.83;;
54123;SDS011;55741;53.252;5.788;2024-01-30T04:37:57;29.52;;;21.13;;
54123;SDS011;55741;53.252;5.788;2024-01-30T04:40:25;28.65;;;21.00;;
54123;SDS011;55741;53.252;5.788;2024-01-30T04:42:52;29.85;;;21.40;;
54123;SDS011;55741;53.252;5.788;2024-01-30T04:45:20;29.05;;;21.08;;
54123;SDS011;55741;53.252;5.788;2024-01-30T04:47:47;28.27;;;19.75;;
54123;SDS011;55741;53.252;5.788;2024-01-30T04:50:15;25.45;;;19.35;;
54123;SDS011;55741;53.252;5.788;2024-01-30T04:52:42;25.17;;;20.13;;
54123;SDS011;55741;53.252;5.788;2024-01-30T04:55:10;28.77;;;20.08;;
54123;SDS011;55741;53.252;5.788;2024-01-30T04:57:37;27.20;;;19.50;;
54123;SDS011;55741;53.252;5.788;2024-01-30T05:00:05;27.48;;;19.77;;
54123;SDS011;55741;53.252;5.788;2024-01-30T05:02:33;25.83;;;19.23;;
54123;SDS011;55741;53.252;5.788;2024-01-30T05:05:01;30.42;;;20.35;;
54123;SDS011;55741;53.252;5.788;2024-01-30T05:07:29;24.50;;;19.95;;
54123;SDS011;55741;53.252;5.788;2024-01-30T05:09:57;29.13;;;20.75;;
54123;SDS011;55741;53.252;5.788;2024-01-30T05:12:24;26.20;;;18.73;;
54123;SDS011;55741;53.252;5.788;2024-01-30T05:14:52;27.40;;;18.73;;
54123;SDS011;55741;53.252;5.788;2024-01-30T05:17:20;25.98;;;18.52;;
54123;SDS011;55741;53.252;5.788;2024-01-30T05:19:47;29.83;;;18.83;;
54123;SDS011;55741;53.252;5.788;2024-01-30T05:22:15;30.83;;;18.95;;
54123;SDS011;55741;53.252;5.788;2024-01-30T05:24:44;25.83;;;18.58;;
54123;SDS011;55741;53.252;5.788;2024-01-30T05:27:12;24.13;;;18.50;;
54123;SDS011;55741;53.252;5.788;2024-01-30T05:29:40;32.10;;;18.77;;
54123;SDS011;55741;53.252;5.788;2024-01-30T05:32:08;24.08;;;18.67;;
54123;SDS011;55741;53.252;5.788;2024-01-30T05:34:36;27.95;;;18.63;;
54123;SDS011;55741;53.252;5.788;2024-01-30T05:37:03;28.38;;;18.90;;
54123;SDS011;55741;53.252;5.788;2024-01-30T05:39:31;22.02;;;17.08;;
54123;SDS011;55741;53.252;5.788;2024-01-30T05:41:59;24.88;;;17.98;;
54123;SDS011;55741;53.252;5.788;2024-01-30T05:44:27;30.15;;;17.75;;
54123;SDS011;55741;53.252;5.788;2024-01-30T05:46:54;23.65;;;19.15;;
54123;SDS011;55741;53.252;5.788;2024-01-30T05:49:22;21.55;;;17.88;;
54123;SDS011;55741;53.252;5.788;2024-01-30T05:51:49;23.33;;;17.88;;
54123;SDS011;55741;53.252;5.788;2024-01-30T05:54:17;24.23;;;17.58;;
54123;SDS011;55741;53.252;5.788;2024-01-30T05:56:44;22.60;;;17.23;;
54123;SDS011;55741;53.252;5.788;2024-01-30T05:59:11;27.17;;;18.48;;
54123;SDS011;55741;53.252;5.788;2024-01-30T06:01:45;24.20;;;16.75;;
54123;SDS011;55741;53.252;5.788;2024-01-30T06:04:13;24.15;;;18.52;;
54123;SDS011;55741;53.252;5.788;2024-01-30T06:06:41;25.35;;;17.52;;
54123;SDS011;55741;53.252;5.788;2024-01-30T06:09:09;24.83;;;17.27;;
54123;SDS011;55741;53.252;5.788;2024-01-30T06:11:36;26.63;;;16.85;;
54123;SDS011;55741;53.252;5.788;2024-01-30T06:14:04;21.65;;;17.65;;
54123;SDS011;55741;53.252;5.788;2024-01-30T06:16:31;25.05;;;17.92;;
54123;SDS011;55741;53.252;5.788;2024-01-30T06:18:59;20.67;;;16.95;;
54123;SDS011;55741;53.252;5.788;2024-01-30T06:21:27;25.02;;;16.95;;
54123;SDS011;55741;53.252;5.788;2024-01-30T06:23:54;24.85;;;18.30;;
54123;SDS011;55741;53.252;5.788;2024-01-30T06:26:21;22.27;;;17.33;;
54123;SDS011;55741;53.252;5.788;2024-01-30T06:28:49;25.55;;;17.23;;
54123;SDS011;55741;53.252;5.788;2024-01-30T06:31:16;22.42;;;16.65;;
54123;SDS011;55741;53.252;5.788;2024-01-30T06:33:46;23.95;;;17.67;;
54123;SDS011;55741;53.252;5.788;2024-01-30T06:36:14;22.88;;;17.15;;
54123;SDS011;55741;53.252;5.788;2024-01-30T06:38:41;24.75;;;17.13;;
54123;SDS011;55741;53.252;5.788;2024-01-30T06:41:09;23.17;;;16.95;;
54123;SDS011;55741;53.252;5.788;2024-01-30T06:43:36;23.13;;;16.20;;
54123;SDS011;55741;53.252;5.788;2024-01-30T06:46:04;21.70;;;16.33;;
54123;SDS011;55741;53.252;5.788;2024-01-30T06:48:31;26.83;;;17.63;;
54123;SDS011;55741;53.252;5.788;2024-01-30T06:50:59;26.88;;;16.85;;
54123;SDS011;55741;53.252;5.788;2024-01-30T06:53:26;28.45;;;17.80;;
54123;SDS011;55741;53.252;5.788;2024-01-30T06:55:54;23.15;;;16.95;;
54123;SDS011;55741;53.252;5.788;2024-01-30T06:58:21;23.75;;;16.55;;
54123;SDS011;55741;53.252;5.788;2024-01-30T07:00:49;23.23;;;16.35;;
54123;SDS011;55741;53.252;5.788;2024-01-30T07:03:16;20.08;;;15.82;;
54123;SDS011;55741;53.252;5.788;2024-01-30T07:05:44;22.70;;;17.15;;
54123;SDS011;55741;53.252;5.788;2024-01-30T07:08:11;26.65;;;17.77;;
54123;SDS011;55741;53.252;5.788;2024-01-30T07:10:39;26.17;;;16.77;;
54123;SDS011;55741;53.252;5.788;2024-01-30T07:13:06;21.95;;;16.52;;
54123;SDS011;55741;53.252;5.788;2024-01-30T07:15:36;20.80;;;16.63;;
54123;SDS011;55741;53.252;5.788;2024-01-30T07:18:05;20.63;;;16.25;;
54123;SDS011;55741;53.252;5.788;2024-01-30T07:20:32;21.55;;;16.73;;
54123;SDS011;55741;53.252;5.788;2024-01-30T07:23:00;22.17;;;17.52;;
54123;SDS011;55741;53.252;5.788;2024-01-30T07:25:27;24.38;;;16.63;;
54123;SDS011;55741;53.252;5.788;2024-01-30T07:27:56;23.33;;;17.35;;
54123;SDS011;55741;53.252;5.788;2024-01-30T07:30:24;23.15;;;17.88;;
54123;SDS011;55741;53.252;5.788;2024-01-30T07:32:51;22.05;;;15.60;;
54123;SDS011;55741;53.252;5.788;2024-01-30T07:35:19;21.95;;;17.17;;
54123;SDS011;55741;53.252;5.788;2024-01-30T07:37:46;26.45;;;16.25;;
54123;SDS011;55741;53.252;5.788;2024-01-30T07:40:14;21.77;;;16.10;;
54123;SDS011;55741;53.252;5.788;2024-01-30T07:42:41;25.40;;;17.55;;
54123;SDS011;55741;53.252;5.788;2024-01-30T07:45:09;31.25;;;17.50;;
54123;SDS011;55741;53.252;5.788;2024-01-30T07:47:37;21.88;;;15.63;;
54123;SDS011;55741;53.252;5.788;2024-01-30T07:50:04;21.73;;;16.38;;
54123;SDS011;55741;53.252;5.788;2024-01-30T07:52:32;24.35;;;17.52;;
54123;SDS011;55741;53.252;5.788;2024-01-30T07:55:00;24.60;;;17.90;;
54123;SDS011;55741;53.252;5.788;2024-01-30T07:57:27;23.23;;;16.85;;
54123;SDS011;55741;53.252;5.788;2024-01-30T07:59:55;21.60;;;15.65;;
54123;SDS011;55741;53.252;5.788;2024-01-30T08:02:24;24.08;;;16.80;;
54123;SDS011;55741;53.252;5.788;2024-01-30T08:04:51;24.75;;;17.17;;
54123;SDS011;55741;53.252;5.788;2024-01-30T08:07:19;23.42;;;16.10;;
54123;SDS011;55741;53.252;5.788;2024-01-30T08:09:47;22.23;;;15.77;;
54123;SDS011;55741;53.252;5.788;2024-01-30T08:12:15;20.75;;;15.73;;
54123;SDS011;55741;53.252;5.788;2024-01-30T08:14:42;21.77;;;15.45;;
54123;SDS011;55741;53.252;5.788;2024-01-30T08:17:10;24.10;;;15.23;;
54123;SDS011;55741;53.252;5.788;2024-01-30T08:19:37;22.42;;;15.32;;
54123;SDS011;55741;53.252;5.788;2024-01-30T08:22:05;23.77;;;15.73;;
54123;SDS011;55741;53.252;5.788;2024-01-30T08:24:32;24.67;;;15.35;;
54123;SDS011;55741;53.252;5.788;2024-01-30T08:27:00;30.48;;;15.10;;
54123;SDS011;55741;53.252;5.788;2024-01-30T08:29:29;23.15;;;16.52;;
54123;SDS011;55741;53.252;5.788;2024-01-30T08:31:56;22.42;;;14.57;;
54123;SDS011;55741;53.252;5.788;2024-01-30T08:34:26;22.58;;;15.90;;
54123;SDS011;55741;53.252;5.788;2024-01-30T08:36:54;22.90;;;15.27;;
54123;SDS011;55741;53.252;5.788;2024-01-30T08:39:21;23.88;;;16.02;;
54123;SDS011;55741;53.252;5.788;2024-01-30T08:41:49;23.45;;;15.45;;
54123;SDS011;55741;53.252;5.788;2024-01-30T08:44:16;22.20;;;15.95;;
54123;SDS011;55741;53.252;5.788;2024-01-30T08:46:44;26.73;;;15.65;;
54123;SDS011;55741;53.252;5.788;2024-01-30T08:49:13;28.10;;;16.20;;
54123;SDS011;55741;53.252;5.788;2024-01-30T08:51:40;22.17;;;15.25;;
54123;SDS011;55741;53.252;5.788;2024-01-30T08:54:08;21.30;;;13.90;;
54123;SDS011;55741;53.252;5.788;2024-01-30T08:56:35;21.83;;;14.80;;
54123;SDS011;55741;53.252;5.788;2024-01-30T08:59:03;24.05;;;14.55;;
54123;SDS011;55741;53.252;5.788;2024-01-30T09:01:30;22.75;;;13.75;;
54123;SDS011;55741;53.252;5.788;2024-01-30T09:03:58;21.90;;;14.75;;
54123;SDS011;55741;53.252;5.788;2024-01-30T09:06:25;21.30;;;15.20;;
54123;SDS011;55741;53.252;5.788;2024-01-30T09:08:55;18.88;;;14.55;;
54123;SDS011;55741;53.252;5.788;2024-01-30T09:11:24;26.10;;;14.57;;
54123;SDS011;55741;53.252;5.788;2024-01-30T09:13:52;22.33;;;14.63;;
54123;SDS011;55741;53.252;5.788;2024-01-30T09:16:19;21.08;;;14.70;;
54123;SDS011;55741;53.252;5.788;2024-01-30T09:18:47;21.25;;;13.77;;
54123;SDS011;55741;53.252;5.788;2024-01-30T09:21:14;21.35;;;14.90;;
54123;SDS011;55741;53.252;5.788;2024-01-30T09:23:40;21.23;;;15.23;;
54123;SDS011;55741;53.252;5.788;2024-01-30T09:26:06;22.02;;;13.35;;
54123;SDS011;55741;53.252;5.788;2024-01-30T09:28:32;22.25;;;14.63;;
54123;SDS011;55741;53.252;5.788;2024-01-30T09:30:58;23.20;;;15.20;;
54123;SDS011;55741;53.252;5.788;2024-01-30T09:33:24;22.10;;;14.80;;
54123;SDS011;55741;53.252;5.788;2024-01-30T09:35:50;27.05;;;16.50;;
54123;SDS011;55741;53.252;5.788;2024-01-30T09:38:16;23.67;;;14.02;;
54123;SDS011;55741;53.252;5.788;2024-01-30T09:40:42;23.25;;;14.90;;
54123;SDS011;55741;53.252;5.788;2024-01-30T09:43:08;27.17;;;15.52;;
54123;SDS011;55741;53.252;5.788;2024-01-30T09:45:42;21.08;;;15.10;;
54123;SDS011;55741;53.252;5.788;2024-01-30T09:48:10;23.88;;;15.50;;
54123;SDS011;55741;53.252;5.788;2024-01-30T09:50:36;24.05;;;15.43;;
54123;SDS011;55741;53.252;5.788;2024-01-30T09:53:02;26.90;;;14.40;;
54123;SDS011;55741;53.252;5.788;2024-01-30T09:55:30;23.70;;;14.82;;
54123;SDS011;55741;53.252;5.788;2024-01-30T09:57:56;28.27;;;14.98;;
54123;SDS011;55741;53.252;5.788;2024-01-30T10:00:22;26.38;;;14.30;;
54123;SDS011;55741;53.252;5.788;2024-01-30T10:02:52;22.95;;;15.52;;
54123;SDS011;55741;53.252;5.788;2024-01-30T10:05:19;27.17;;;13.75;;
54123;SDS011;55741;53.252;5.788;2024-01-30T10:07:56;23.20;;;13.50;;
54123;SDS011;55741;53.252;5.788;2024-01-30T10:10:22;24.17;;;13.27;;
54123;SDS011;55741;53.252;5.788;2024-01-30T10:12:51;19.77;;;12.13;;
54123;SDS011;55741;53.252;5.788;2024-01-30T10:15:18;22.40;;;11.63;;
54123;SDS011;55741;53.252;5.788;2024-01-30T10:17:44;26.08;;;11.38;;
54123;SDS011;55741;53.252;5.788;2024-01-30T10:20:11;22.77;;;10.68;;
54123;SDS011;55741;53.252;5.788;2024-01-30T10:22:40;19.48;;;8.75;;
54123;SDS011;55741;53.252;5.788;2024-01-30T10:25:11;18.48;;;9.18;;
54123;SDS011;55741;53.252;5.788;2024-01-30T10:27:41;26.38;;;8.70;;
54123;SDS011;55741;53.252;5.788;2024-01-30T10:30:09;27.60;;;7.90;;
54123;SDS011;55741;53.252;5.788;2024-01-30T10:32:37;20.25;;;6.57;;
54123;SDS011;55741;53.252;5.788;2024-01-30T10:35:04;20.80;;;6.68;;
54123;SDS011;55741;53.252;5.788;2024-01-30T10:37:32;17.38;;;6.57;;
54123;SDS011;55741;53.252;5.788;2024-01-30T10:40:01;21.27;;;6.60;;
54123;SDS011;55741;53.252;5.788;2024-01-30T10:42:32;23.92;;;5.80;;
54123;SDS011;55741;53.252;5.788;2024-01-30T10:45:06;19.20;;;5.18;;
54123;SDS011;55741;53.252;5.788;2024-01-30T10:47:35;15.07;;;4.00;;
54123;SDS011;55741;53.252;5.788;2024-01-30T10:50:04;14.02;;;4.28;;
54123;SDS011;55741;53.252;5.788;2024-01-30T10:52:32;13.18;;;4.60;;
54123;SDS011;55741;53.252;5.788;2024-01-30T10:55:00;16.33;;;4.13;;
54123;SDS011;55741;53.252;5.788;2024-01-30T10:57:27;15.85;;;4.15;;
54123;SDS011;55741;53.252;5.788;2024-01-30T10:59:56;15.13;;;4.30;;
54123;SDS011;55741;53.252;5.788;2024-01-30T11:02:25;16.02;;;4.35;;
54123;SDS011;55741;53.252;5.788;2024-01-30T11:04:57;19.15;;;5.53;;
54123;SDS011;55741;53.252;5.788;2024-01-30T11:07:29;16.77;;;4.22;;
54123;SDS011;55741;53.252;5.788;2024-01-30T11:12:25;17.15;;;4.28;;
54123;SDS011;55741;53.252;5.788;2024-01-30T11:15:06;13.98;;;4.70;;
54123;SDS011;55741;53.252;5.788;2024-01-30T11:20:33;15.48;;;3.97;;
54123;SDS011;55741;53.252;5.788;2024-01-30T11:23:00;12.10;;;3.55;;
54123;SDS011;55741;53.252;5.788;2024-01-30T11:25:32;14.05;;;3.60;;
54123;SDS011;55741;53.252;5.788;2024-01-30T11:28:00;16.02;;;3.75;;
54123;SDS011;55741;53.252;5.788;2024-01-30T11:33:00;11.10;;;3.55;;
54123;SDS011;55741;53.252;5.788;2024-01-30T11:35:47;16.95;;;4.32;;
54123;SDS011;55741;53.252;5.788;2024-01-30T11:38:15;15.68;;;3.30;;
54123;SDS011;55741;53.252;5.788;2024-01-30T11:40:43;16.85;;;4.07;;
54123;SDS011;55741;53.252;5.788;2024-01-30T11:43:11;12.40;;;3.75;;
54123;SDS011;55741;53.252;5.788;2024-01-30T11:45:39;11.70;;;3.40;;
54123;SDS011;55741;53.252;5.788;2024-01-30T11:48:07;17.15;;;4.10;;
54123;SDS011;55741;53.252;5.788;2024-01-30T11:50:37;16.13;;;3.55;;
54123;SDS011;55741;53.252;5.788;2024-01-30T11:53:05;12.93;;;3.58;;
54123;SDS011;55741;53.252;5.788;2024-01-30T11:55:33;15.45;;;3.13;;
54123;SDS011;55741;53.252;5.788;2024-01-30T11:58:03;14.60;;;3.80;;
54123;SDS011;55741;53.252;5.788;2024-01-30T12:00:31;15.45;;;3.80;;
54123;SDS011;55741;53.252;5.788;2024-01-30T12:03:00;11.82;;;3.15;;
54123;SDS011;55741;53.252;5.788;2024-01-30T12:05:28;11.35;;;3.40;;
54123;SDS011;55741;53.252;5.788;2024-01-30T12:07:55;14.85;;;3.30;;
54123;SDS011;55741;53.252;5.788;2024-01-30T12:10:25;9.73;;;3.00;;
54123;SDS011;55741;53.252;5.788;2024-01-30T12:12:53;17.50;;;4.57;;
54123;SDS011;55741;53.252;5.788;2024-01-30T12:15:22;12.55;;;3.42;;
54123;SDS011;55741;53.252;5.788;2024-01-30T12:17:50;11.07;;;3.22;;
54123;SDS011;55741;53.252;5.788;2024-01-30T12:20:18;15.45;;;4.45;;
54123;SDS011;55741;53.252;5.788;2024-01-30T12:22:47;8.85;;;2.60;;
54123;SDS011;55741;53.252;5.788;2024-01-30T12:25:16;9.65;;;2.88;;
54123;SDS011;55741;53.252;5.788;2024-01-30T12:27:45;19.00;;;4.15;;
54123;SDS011;55741;53.252;5.788;2024-01-30T12:30:18;14.02;;;2.90;;
54123;SDS011;55741;53.252;5.788;2024-01-30T12:32:47;13.10;;;3.33;;
54123;SDS011;55741;53.252;5.788;2024-01-30T12:35:18;13.57;;;3.08;;
54123;SDS011;55741;53.252;5.788;2024-01-30T12:37:46;8.18;;;2.20;;
54123;SDS011;55741;53.252;5.788;2024-01-30T12:40:15;12.63;;;2.60;;
54123;SDS011;55741;53.252;5.788;2024-01-30T12:42:46;15.48;;;2.85;;
54123;SDS011;55741;53.252;5.788;2024-01-30T12:45:17;13.75;;;3.42;;
54123;SDS011;55741;53.252;5.788;2024-01-30T12:47:48;10.20;;;2.47;;
54123;SDS011;55741;53.252;5.788;2024-01-30T12:50:16;7.00;;;2.67;;
54123;SDS011;55741;53.252;5.788;2024-01-30T12:52:44;14.02;;;3.70;;
54123;SDS011;55741;53.252;5.788;2024-01-30T12:55:12;12.18;;;2.97;;
54123;SDS011;55741;53.252;5.788;2024-01-30T12:57:39;11.45;;;3.20;;
54123;SDS011;55741;53.252;5.788;2024-01-30T13:00:08;11.25;;;3.00;;
54123;SDS011;55741;53.252;5.788;2024-01-30T13:02:36;7.30;;;2.78;;
54123;SDS011;55741;53.252;5.788;2024-01-30T13:05:04;15.70;;;3.75;;
54123;SDS011;55741;53.252;5.788;2024-01-30T13:07:32;8.57;;;2.83;;
54123;SDS011;55741;53.252;5.788;2024-01-30T13:10:00;11.93;;;2.95;;
54123;SDS011;55741;53.252;5.788;2024-01-30T13:12:30;13.18;;;3.58;;
54123;SDS011;55741;53.252;5.788;2024-01-30T13:14:59;8.50;;;2.47;;
54123;SDS011;55741;53.252;5.788;2024-01-30T13:17:31;8.85;;;2.65;;
54123;SDS011;55741;53.252;5.788;2024-01-30T13:19:59;11.18;;;2.85;;
54123;SDS011;55741;53.252;5.788;2024-01-30T13:22:26;10.10;;;3.05;;
54123;SDS011;55741;53.252;5.788;2024-01-30T13:24:54;7.32;;;2.30;;
54123;SDS011;55741;53.252;5.788;2024-01-30T13:27:21;8.00;;;2.40;;
54123;SDS011;55741;53.252;5.788;2024-01-30T13:29:49;3.78;;;2.20;;
54123;SDS011;55741;53.252;5.788;2024-01-30T13:32:16;11.65;;;2.45;;
54123;SDS011;55741;53.252;5.788;2024-01-30T13:34:44;10.80;;;2.80;;
54123;SDS011;55741;53.252;5.788;2024-01-30T13:37:11;8.55;;;2.63;;
54123;SDS011;55741;53.252;5.788;2024-01-30T13:39:39;6.07;;;2.60;;
54123;SDS011;55741;53.252;5.788;2024-01-30T13:42:06;13.77;;;2.70;;
54123;SDS011;55741;53.252;5.788;2024-01-30T13:44:35;11.70;;;3.17;;
54123;SDS011;55741;53.252;5.788;2024-01-30T13:47:03;8.20;;;2.70;;
54123;SDS011;55741;53.252;5.788;2024-01-30T13:49:30;12.90;;;3.75;;
54123;SDS011;55741;53.252;5.788;2024-01-30T13:51:58;12.88;;;3.45;;
54123;SDS011;55741;53.252;5.788;2024-01-30T13:54:26;8.57;;;3.00;;
54123;SDS011;55741;53.252;5.788;2024-01-30T13:56:53;10.52;;;3.15;;
54123;SDS011;55741;53.252;5.788;2024-01-30T13:59:21;6.93;;;3.08;;
54123;SDS011;55741;53.252;5.788;2024-01-30T14:01:51;10.20;;;3.20;;
54123;SDS011;55741;53.252;5.788;2024-01-30T14:04:18;7.30;;;2.65;;
54123;SDS011;55741;53.252;5.788;2024-01-30T14:06:46;10.65;;;3.17;;
54123;SDS011;55741;53.252;5.788;2024-01-30T14:09:13;13.88;;;3.78;;
54123;SDS011;55741;53.252;5.788;2024-01-30T14:11:42;7.53;;;3.28;;
54123;SDS011;55741;53.252;5.788;2024-01-30T14:14:09;11.15;;;3.83;;
54123;SDS011;55741;53.252;5.788;2024-01-30T14:16:37;8.63;;;3.50;;
54123;SDS011;55741;53.252;5.788;2024-01-30T14:19:04;10.73;;;3.80;;
54123;SDS011;55741;53.252;5.788;2024-01-30T14:21:32;10.75;;;3.55;;
54123;SDS011;55741;53.252;5.788;2024-01-30T14:23:59;11.07;;;3.60;;
54123;SDS011;55741;53.252;5.788;2024-01-30T14:26:27;9.90;;;3.50;;
54123;SDS011;55741;53.252;5.788;2024-01-30T14:28:54;9.00;;;3.05;;
54123;SDS011;55741;53.252;5.788;2024-01-30T14:31:22;13.65;;;3.50;;
54123;SDS011;55741;53.252;5.788;2024-01-30T14:33:51;14.55;;;4.50;;
54123;SDS011;55741;53.252;5.788;2024-01-30T14:36:18;10.30;;;3.80;;
54123;SDS011;55741;53.252;5.788;2024-01-30T14:38:47;15.13;;;4.85;;